| time (UTC) | temp C | wind direction | speed KPH | gust KPH | rain 1hr cm | rain 24hr cm | rain mn cm | humidity % | barometer mb |
| 20260906113024 | 20 | 360 | 0.0 | 0.0 | 0.00 | 0.03 | 0.03 | 94 | 1009.2 |
| 20260906111625 | 21 | 360 | 0.0 | 0.0 | 0.00 | 0.03 | 0.03 | 94 | 1009.3 |
| 20260906110006 | 21 | 360 | 0.0 | 0.0 | 0.00 | 0.03 | 0.03 | 94 | 1009.0 |
| 20260906104700 | 21 | 360 | 0.0 | 0.0 | 0.00 | 0.03 | 0.03 | 94 | 1008.8 |
| 20260906103057 | 21 | 360 | 0.0 | 0.0 | 0.00 | 0.03 | 0.03 | 94 | 1008.8 |
| 20260906101549 | 21 | 360 | 0.0 | 0.0 | 0.00 | 0.03 | 0.03 | 94 | 1008.8 |
| 20260906100053 | 21 | 360 | 0.0 | 0.0 | 0.00 | 0.03 | 0.03 | 94 | 1008.7 |
| 20260906094643 | 21 | 360 | 0.0 | 0.0 | 0.00 | 0.03 | 0.03 | 94 | 1008.9 |
| 20260906093035 | 21 | 360 | 0.0 | 0.0 | 0.00 | 0.03 | 0.03 | 94 | 1008.9 |
| 20260906091527 | 21 | 360 | 0.0 | 1.6 | 0.00 | 0.03 | 0.03 | 94 | 1008.9 |
| 20260906090020 | 21 | 360 | 0.0 | 1.6 | 0.00 | 0.03 | 0.03 | 93 | 1009.0 |
| 20260906084515 | 22 | 284 | 0.0 | 0.0 | 0.00 | 0.03 | 0.03 | 93 | 1008.9 |
| 20260906083007 | 22 | 215 | 0.0 | 0.0 | 0.00 | 0.03 | 0.03 | 93 | 1008.9 |
| 20260906081559 | 22 | 360 | 0.0 | 1.6 | 0.00 | 0.03 | 0.03 | 92 | 1008.9 |
| 20260906080057 | 22 | 360 | 0.0 | 0.0 | 0.00 | 0.03 | 0.03 | 92 | 1008.9 |
| 20260906074547 | 22 | 171 | 0.0 | 0.0 | 0.00 | 0.03 | 0.03 | 92 | 1009.3 |
| 20260906073044 | 22 | 360 | 0.0 | 9.7 | 0.00 | 0.03 | 0.03 | 92 | 1009.2 |
| 20260906071537 | 22 | 213 | 0.0 | 1.6 | 0.00 | 0.03 | 0.03 | 91 | 1009.1 |
| 20260906070030 | 22 | 360 | 0.0 | 0.0 | 0.00 | 0.03 | 0.03 | 91 | 1008.5 |
| 20260906064520 | 22 | 36 | 0.0 | 0.0 | 0.03 | 0.03 | 0.03 | 90 | 1008.8 |
| 20260906063015 | 23 | 360 | 0.0 | 1.6 | 0.03 | 0.03 | 0.03 | 91 | 1009.3 |
| 20260906061608 | 23 | 360 | 0.0 | 1.6 | 0.03 | 0.03 | 0.03 | 91 | 1009.6 |
| 20260906060059 | 23 | 9 | 0.0 | 8.0 | 0.03 | 0.03 | 0.03 | 90 | 1009.4 |
| 20260906054602 | 23 | 360 | 0.0 | 1.6 | 0.00 | 0.00 | 0.00 | 89 | 1008.8 |
| 20260906053057 | 23 | 360 | 0.0 | 11.3 | 0.00 | 0.00 | 0.00 | 88 | 1009.4 |
| 20260906051601 | 23 | 240 | 0.0 | 0.0 | 0.00 | 0.00 | 0.00 | 87 | 1009.4 |
| 20260906050033 | 23 | 235 | 0.0 | 0.0 | 0.00 | 0.00 | 0.00 | 88 | 1009.4 |
| 20260906044525 | 23 | 235 | 0.0 | 0.0 | 0.00 | 0.00 | 0.00 | 89 | 1009.2 |
| 20260906043020 | 23 | 235 | 0.0 | 0.0 | 0.00 | 0.00 | 0.00 | 89 | 1009.4 |
| 20260906041511 | 23 | 235 | 0.0 | 0.0 | 0.00 | 0.00 | 0.00 | 88 | 1009.6 |
| 20260906040003 | 23 | 222 | 0.0 | 0.0 | 0.00 | 0.00 | 0.00 | 87 | 1009.8 |
| 20260906034605 | 23 | 222 | 0.0 | 0.0 | 0.00 | 0.00 | 0.00 | 87 | 1009.7 |
| 20260906033104 | 23 | 223 | 0.0 | 0.0 | 0.00 | 0.00 | 0.00 | 87 | 1009.7 |
| 20260906031550 | 23 | 223 | 0.0 | 0.0 | 0.00 | 0.00 | 0.00 | 87 | 1009.7 |
| 20260906030047 | 23 | 223 | 0.0 | 0.0 | 0.00 | 0.00 | 0.00 | 86 | 1009.6 |
| 20260906024540 | 23 | 223 | 0.0 | 0.0 | 0.00 | 0.00 | 0.00 | 87 | 1009.5 |
| 20260906023033 | 23 | 223 | 0.0 | 0.0 | 0.00 | 0.00 | 0.00 | 86 | 1009.0 |
| 20260906021528 | 24 | 223 | 0.0 | 0.0 | 0.00 | 0.00 | 0.00 | 85 | 1008.9 |
| 20260906020120 | 24 | 245 | 0.0 | 0.0 | 0.00 | 0.00 | 0.00 | 84 | 1008.8 |
| 20260906014514 | 25 | 244 | 0.0 | 0.0 | 0.00 | 0.00 | 0.00 | 84 | 1008.5 |
| 20260906013007 | 25 | 244 | 0.0 | 0.0 | 0.00 | 0.00 | 0.00 | 83 | 1008.3 |
| 20260906011501 | 25 | 360 | 0.0 | 0.0 | 0.00 | 0.00 | 0.00 | 80 | 1008.4 |
| 20260906010055 | 26 | 360 | 0.0 | 0.0 | 0.00 | 0.00 | 0.00 | 78 | 1008.5 |
| 20260906004551 | 26 | 360 | 0.0 | 0.0 | 0.00 | 0.00 | 0.00 | 77 | 1008.7 |
| 20260906003050 | 26 | 360 | 0.0 | 0.0 | 0.00 | 0.00 | 0.00 | 75 | 1008.6 |
| 20260906001546 | 27 | 360 | 0.0 | 0.0 | 0.00 | 0.00 | 0.00 | 72 | 1008.6 |
| 20260906000040 | 27 | 360 | 0.0 | 0.0 | 0.00 | 0.00 | 0.00 | 69 | 1008.7 |
| 20260905234533 | 28 | 360 | 0.0 | 0.0 | 0.00 | 0.00 | 0.00 | 67 | 1008.7 |
| 20260905233025 | 29 | 360 | 0.0 | 0.0 | 0.00 | 0.00 | 0.00 | 65 | 1008.5 |
| 20260905231521 | 29 | 290 | 0.0 | 0.0 | 0.00 | 0.00 | 0.00 | 65 | 1008.2 |
| 20260905230113 | 29 | 360 | 0.0 | 0.0 | 0.00 | 0.00 | 0.00 | 65 | 1008.3 |
| 20260905224509 | 28 | 290 | 0.0 | 1.6 | 0.00 | 0.00 | 0.00 | 67 | 1008.5 |
| 20260905223113 | 28 | 360 | 0.0 | 0.0 | 0.00 | 0.00 | 0.00 | 67 | 1008.3 |
| 20260905221550 | 27 | 360 | 0.0 | 0.0 | 0.00 | 0.00 | 0.00 | 68 | 1008.5 |
| 20260905220049 | 27 | 360 | 0.0 | 0.0 | 0.00 | 0.00 | 0.00 | 70 | 1008.7 |
| 20260905214548 | 27 | 288 | 0.0 | 0.0 | 0.00 | 0.00 | 0.00 | 71 | 1008.7 |
| 20260905213041 | 27 | 360 | 0.0 | 1.6 | 0.00 | 0.00 | 0.00 | 69 | 1008.7 |
| 20260905211631 | 28 | 280 | 0.0 | 1.6 | 0.00 | 0.00 | 0.00 | 66 | 1008.8 |
| 20260905210038 | 27 | 360 | 0.0 | 3.2 | 0.00 | 0.00 | 0.00 | 70 | 1008.8 |
| 20260905204515 | 25 | 236 | 0.0 | 8.0 | 0.00 | 0.00 | 0.00 | 73 | 1009.1 |
| 20260905203007 | 24 | 216 | 0.0 | 6.4 | 0.00 | 0.00 | 0.00 | 76 | 1009.3 |
| 20260905201559 | 23 | 360 | 3.2 | 24.1 | 0.00 | 0.00 | 0.00 | 79 | 1009.7 |
| 20260905201502 | 23 | 217 | 3.2 | 24.1 | 0.00 | 0.00 | 0.00 | 79 | 1009.7 |
| 20260905200054 | 25 | 213 | 1.6 | 11.3 | 0.00 | 0.00 | 0.00 | 76 | 1009.6 |
| 20260905194550 | 25 | 360 | 0.0 | 8.0 | 0.00 | 0.00 | 0.00 | 78 | 1009.6 |
| 20260905193039 | 26 | 360 | 0.0 | 11.3 | 0.00 | 0.00 | 0.00 | 72 | 1009.7 |
| 20260905191534 | 26 | 144 | 0.0 | 1.6 | 0.00 | 0.00 | 0.00 | 73 | 1009.7 |
| 20260905190028 | 27 | 155 | 1.6 | 27.4 | 0.00 | 0.00 | 0.00 | 71 | 1010.1 |
| 20260905184528 | 30 | 360 | 0.0 | 8.0 | 0.00 | 0.00 | 0.00 | 66 | 1009.9 |
| 20260905183015 | 30 | 360 | 0.0 | 4.8 | 0.00 | 0.00 | 0.00 | 59 | 1009.8 |
| 20260905181507 | 29 | 360 | 0.0 | 6.4 | 0.00 | 0.00 | 0.00 | 61 | 1009.8 |
| 20260905180001 | 32 | 360 | 12.9 | 32.2 | 0.00 | 0.00 | 0.00 | 53 | 1010.0 |
| 20260905174549 | 32 | 360 | 0.0 | 0.0 | 0.00 | 0.00 | 0.00 | 55 | 1009.8 |
| 20260905173105 | 31 | 22 | 0.0 | 0.0 | 0.00 | 0.00 | 0.00 | 57 | 1010.0 |
| 20260905171547 | 30 | 23 | 0.0 | 17.7 | 0.00 | 0.00 | 0.00 | 60 | 1010.0 |
| 20260905170046 | 31 | 360 | 0.0 | 6.4 | 0.00 | 0.00 | 0.00 | 57 | 1010.2 |
| 20260905164536 | 32 | 17 | 0.0 | 8.0 | 0.00 | 0.00 | 0.00 | 56 | 1010.4 |
| 20260905163028 | 32 | 360 | 0.0 | 0.0 | 0.00 | 0.00 | 0.00 | 57 | 1010.6 |
| 20260905161520 | 32 | 360 | 0.0 | 0.0 | 0.00 | 0.00 | 0.00 | 56 | 1010.8 |
| 20260905160014 | 32 | 360 | 0.0 | 0.0 | 0.00 | 0.00 | 0.00 | 56 | 1010.8 |
| 20260905154502 | 31 | 360 | 0.0 | 0.0 | 0.00 | 0.00 | 0.00 | 58 | 1010.8 |
| 20260905153056 | 30 | 40 | 0.0 | 0.0 | 0.00 | 0.00 | 0.00 | 59 | 1010.9 |
| 20260905151548 | 29 | 38 | 0.0 | 0.0 | 0.00 | 0.00 | 0.00 | 64 | 1011.1 |
| 20260905150041 | 28 | 42 | 0.0 | 0.0 | 0.00 | 0.00 | 0.00 | 67 | 1011.1 |
| 20260905144532 | 28 | 360 | 0.0 | 0.0 | 0.00 | 0.00 | 0.00 | 66 | 1011.1 |
| 20260905143022 | 27 | 40 | 0.0 | 0.0 | 0.00 | 0.00 | 0.00 | 68 | 1011.2 |
| 20260905141514 | 27 | 360 | 0.0 | 0.0 | 0.00 | 0.00 | 0.00 | 69 | 1011.3 |
| 20260905140110 | 26 | 360 | 0.0 | 0.0 | 0.00 | 0.00 | 0.00 | 71 | 1011.3 |
| 20260905134658 | 26 | 36 | 0.0 | 0.0 | 0.00 | 0.00 | 0.00 | 76 | 1011.4 |
| 20260905133049 | 25 | 36 | 0.0 | 0.0 | 0.00 | 0.00 | 0.00 | 77 | 1011.5 |
| 20260905131641 | 25 | 36 | 0.0 | 0.0 | 0.00 | 0.00 | 0.00 | 80 | 1011.6 |
| 20260905130033 | 24 | 36 | 0.0 | 0.0 | 0.00 | 0.00 | 0.00 | 82 | 1011.7 |
| 20260905124526 | 23 | 39 | 0.0 | 0.0 | 0.00 | 0.00 | 0.00 | 85 | 1011.8 |
| 20260905123017 | 23 | 40 | 0.0 | 0.0 | 0.00 | 0.00 | 0.00 | 86 | 1011.6 |
| 20260905121508 | 22 | 360 | 0.0 | 0.0 | 0.00 | 0.00 | 0.00 | 90 | 1011.4 |
| 20260905120001 | 22 | 40 | 0.0 | 0.0 | 0.00 | 0.00 | 0.00 | 91 | 1011.2 |
| 20260905114600 | 21 | 40 | 0.0 | 0.0 | 0.00 | 0.00 | 0.00 | 92 | 1011.1 |